createdAt,value
2024-03-08T00:00:56.145Z,31.44
2024-03-08T00:01:56.230Z,31.41
2024-03-08T00:02:56.356Z,31.44
2024-03-08T00:03:56.396Z,31.42
2024-03-08T00:04:56.498Z,31.42
2024-03-08T00:57:58.250Z,31.40
2024-03-08T00:58:56.863Z,31.33
2024-03-08T00:59:56.863Z,31.33
2024-03-08T01:00:56.883Z,31.32
2024-03-08T01:01:56.890Z,31.33
2024-03-08T01:02:56.999Z,31.33
2024-03-08T01:03:56.981Z,31.27
2024-03-08T01:04:57.085Z,31.30
2024-03-08T01:05:57.187Z,31.30
2024-03-08T01:06:57.261Z,31.32
2024-03-08T01:07:57.356Z,31.33
2024-03-08T01:08:57.572Z,31.30
2024-03-08T01:09:57.577Z,31.33
2024-03-08T01:10:57.718Z,31.30
2024-03-08T01:11:57.833Z,31.32
2024-03-08T01:12:57.872Z,31.29
2024-03-08T01:13:58.000Z,31.28
2024-03-08T01:14:58.056Z,31.28
2024-03-08T01:15:58.129Z,31.29
2024-03-08T01:16:58.241Z,31.20
2024-03-08T01:17:58.387Z,31.23
2024-03-08T01:18:58.462Z,31.25
2024-03-08T01:19:58.477Z,31.25
2024-03-08T01:20:58.652Z,31.25
2024-03-08T01:21:58.630Z,31.25
2024-03-08T01:22:58.722Z,31.25
2024-03-08T01:23:58.857Z,31.25
2024-03-08T01:24:58.908Z,31.28
2024-03-08T01:25:58.972Z,31.20
2024-03-08T01:26:59.075Z,31.25
2024-03-08T01:27:59.168Z,31.27
2024-03-08T01:28:59.253Z,31.22
2024-03-08T01:29:59.404Z,31.26
2024-03-08T01:30:59.431Z,31.24
2024-03-08T01:31:59.546Z,31.22
2024-03-08T01:32:59.605Z,31.22
2024-03-08T01:33:59.667Z,31.22
2024-03-08T01:34:59.675Z,31.23
2024-03-08T01:35:59.791Z,31.23
2024-03-08T01:36:59.829Z,31.25
2024-03-08T01:37:59.872Z,31.19
2024-03-08T01:39:00.003Z,31.20
2024-03-08T01:40:00.057Z,31.23
2024-03-08T01:41:00.137Z,31.20
2024-03-08T01:42:00.283Z,31.20
2024-03-08T01:43:00.268Z,31.20
2024-03-08T01:44:00.352Z,31.20
2024-03-08T01:45:00.628Z,31.22
2024-03-08T01:46:00.483Z,31.20
2024-03-08T01:47:00.631Z,31.16
2024-03-08T01:48:00.695Z,31.15
2024-03-08T01:49:00.735Z,31.20
2024-03-08T01:50:00.778Z,31.21
2024-03-08T01:51:00.847Z,31.18
2024-03-08T01:52:00.884Z,31.19
2024-03-08T01:53:00.820Z,31.18
2024-03-08T01:54:00.888Z,31.25
2024-03-08T01:55:00.903Z,31.18
2024-03-08T01:56:00.977Z,31.18
2024-03-08T01:57:01.141Z,31.18
2024-03-08T01:58:01.060Z,31.18
2024-03-08T01:59:01.109Z,31.16
2024-03-08T02:00:01.302Z,31.20
2024-03-08T02:01:01.300Z,31.18
2024-03-08T02:02:01.358Z,31.12
2024-03-08T02:03:01.413Z,31.18
2024-03-08T02:04:01.427Z,31.15
2024-03-08T02:05:01.454Z,31.16
2024-03-08T02:06:01.516Z,31.15
2024-03-08T02:07:01.549Z,31.14
2024-03-08T02:08:01.608Z,31.15
2024-03-08T02:09:01.709Z,31.16
2024-03-08T02:10:01.740Z,31.18
2024-03-08T02:11:01.823Z,31.15
2024-03-08T02:12:01.872Z,31.11
2024-03-08T02:13:01.861Z,31.16
2024-03-08T02:14:01.901Z,31.18
2024-03-08T02:15:02.018Z,31.13
2024-03-08T02:16:02.025Z,31.13
2024-03-08T02:17:02.070Z,31.13
2024-03-08T02:18:02.212Z,31.13
2024-03-08T02:19:02.194Z,31.11
2024-03-08T02:20:02.232Z,31.11
2024-03-08T02:21:02.345Z,31.14
2024-03-08T02:22:02.346Z,31.16
2024-03-08T02:23:02.391Z,31.13
2024-03-08T02:24:02.462Z,31.13
2024-03-08T02:25:02.522Z,31.11
2024-03-08T02:26:02.591Z,31.11
2024-03-08T02:27:02.728Z,31.12
2024-03-08T02:28:02.677Z,31.11
2024-03-08T02:29:02.729Z,31.16
2024-03-08T02:30:02.872Z,31.13
2024-03-08T02:31:02.842Z,31.13
2024-03-08T02:32:02.905Z,31.15
2024-03-08T02:33:03.017Z,31.13
2024-03-08T02:34:03.063Z,31.13
2024-03-08T02:35:03.079Z,31.09
2024-03-08T02:36:04.055Z,31.12
2024-03-08T02:37:03.161Z,31.11
2024-03-08T02:38:03.187Z,31.15
2024-03-08T02:39:03.244Z,31.06
2024-03-08T02:40:03.218Z,31.12
2024-03-08T02:41:03.260Z,31.06
2024-03-08T02:42:03.414Z,31.11
2024-03-08T02:43:03.323Z,31.12
2024-03-08T02:44:03.357Z,31.12
2024-03-08T02:45:03.443Z,31.13
2024-03-08T02:46:03.468Z,31.07
2024-03-08T02:47:03.483Z,31.11
2024-03-08T02:48:03.622Z,31.12
2024-03-08T02:49:03.567Z,31.09
2024-03-08T02:50:03.671Z,31.09
2024-03-08T02:51:03.678Z,31.11
2024-03-08T02:52:03.692Z,31.12
2024-03-08T02:53:03.748Z,31.05
2024-03-08T02:54:03.813Z,31.05
2024-03-08T02:55:03.818Z,31.07
2024-03-08T02:56:03.877Z,31.08
2024-03-08T02:57:03.984Z,31.04
2024-03-08T02:58:03.942Z,31.06
2024-03-08T02:59:04.018Z,31.09
2024-03-08T03:00:04.066Z,31.12
2024-03-08T03:01:04.117Z,31.08
2024-03-08T03:02:04.116Z,31.11
2024-03-08T03:03:04.365Z,31.02
2024-03-08T03:04:04.214Z,31.07
2024-03-08T03:05:04.248Z,31.05
2024-03-08T03:06:04.442Z,31.05
2024-03-08T03:07:04.367Z,31.04
2024-03-08T03:08:04.433Z,31.05
2024-03-08T03:09:04.528Z,31.01
2024-03-08T03:10:04.540Z,31.05
2024-03-08T03:11:04.641Z,31.04
2024-03-08T03:12:04.643Z,31.04
2024-03-08T03:13:04.691Z,31.07
2024-03-08T03:14:04.757Z,31.06
2024-03-08T03:15:04.898Z,31.08
2024-03-08T03:16:04.942Z,31.04
2024-03-08T03:17:04.974Z,31.05
2024-03-08T03:18:05.166Z,31.05
2024-03-08T03:19:05.091Z,31.05
2024-03-08T03:20:05.127Z,31.05
2024-03-08T03:21:05.220Z,31.04
2024-03-08T03:22:05.315Z,31.04
2024-03-08T03:23:05.337Z,31.05
2024-03-08T03:24:05.545Z,31.03
2024-03-08T03:25:05.456Z,31.01
2024-03-08T03:26:06.005Z,31.04
2024-03-08T03:27:05.565Z,31.03
2024-03-08T03:28:05.848Z,31.02
2024-03-08T03:29:05.630Z,31.02
2024-03-08T03:30:05.747Z,31.06
2024-03-08T03:31:07.909Z,31.04
2024-03-08T03:32:05.720Z,31.03
2024-03-08T03:33:05.751Z,31.03
2024-03-08T03:34:05.715Z,31.01
2024-03-08T03:35:05.720Z,30.99
2024-03-08T03:36:05.829Z,30.96
2024-03-08T03:37:05.738Z,30.98
2024-03-08T03:38:05.796Z,30.98
2024-03-08T03:39:05.777Z,31.01
2024-03-08T03:40:05.741Z,31.02
2024-03-08T03:41:05.745Z,30.98
2024-03-08T03:42:05.841Z,31.03
2024-03-08T03:43:05.788Z,30.99
2024-03-08T03:44:05.861Z,30.96
2024-03-08T03:45:06.088Z,31.01
2024-03-08T03:46:06.043Z,31.01
2024-03-08T03:47:06.109Z,30.95
2024-03-08T03:48:06.523Z,31.02
2024-03-08T03:49:06.232Z,30.95
2024-03-08T03:50:06.280Z,30.96
2024-03-08T03:51:06.366Z,30.94
2024-03-08T03:52:06.410Z,30.92
2024-03-08T03:53:06.473Z,30.96
2024-03-08T03:54:06.652Z,30.96
2024-03-08T03:55:06.589Z,30.94
2024-03-08T03:56:06.619Z,30.96
2024-03-08T03:57:06.875Z,30.98
2024-03-08T03:58:06.738Z,30.95
2024-03-08T03:59:06.798Z,30.94
2024-03-08T04:00:06.890Z,30.92
2024-03-08T04:01:06.942Z,30.95
2024-03-08T04:02:06.945Z,30.92
2024-03-08T04:03:07.566Z,30.95
2024-03-08T04:04:07.046Z,30.90
2024-03-08T04:05:07.096Z,30.92
2024-03-08T04:06:07.173Z,30.94
2024-03-08T04:07:07.221Z,30.94
2024-03-08T04:08:07.221Z,30.94
2024-03-08T04:09:07.352Z,30.90
2024-03-08T04:10:07.463Z,30.90
2024-03-08T04:11:07.391Z,30.91
2024-03-08T04:12:07.502Z,30.91
2024-03-08T04:13:07.488Z,30.85
2024-03-08T04:14:07.535Z,30.94
2024-03-08T04:15:07.610Z,30.92
2024-03-08T04:16:07.626Z,30.91
2024-03-08T04:17:07.676Z,30.88
2024-03-08T04:18:07.750Z,30.87
2024-03-08T04:19:07.745Z,30.88
2024-03-08T04:20:07.799Z,30.92
2024-03-08T04:21:07.982Z,30.88
2024-03-08T04:22:07.915Z,30.88
2024-03-08T04:23:08.023Z,30.91
2024-03-08T04:24:08.145Z,30.90
2024-03-08T04:25:08.255Z,30.92
2024-03-08T04:26:08.349Z,30.91
2024-03-08T04:27:08.512Z,30.87
2024-03-08T04:28:08.458Z,30.90
2024-03-08T04:29:08.558Z,30.91
2024-03-08T04:30:09.235Z,30.87
2024-03-08T04:31:08.680Z,30.85
2024-03-08T04:32:08.725Z,30.83
2024-03-08T04:33:08.827Z,30.83
2024-03-08T04:34:08.814Z,30.80
2024-03-08T04:35:08.884Z,30.78
2024-03-08T04:36:09.025Z,30.78
2024-03-08T04:37:08.969Z,30.82
2024-03-08T04:38:09.044Z,30.76
2024-03-08T04:39:09.245Z,30.74
2024-03-08T04:40:16.543Z,30.79
2024-03-08T04:41:17.617Z,30.75
2024-03-08T04:42:17.588Z,30.71
2024-03-08T04:43:17.542Z,30.71
2024-03-08T04:44:17.545Z,30.68
2024-03-08T04:45:17.588Z,30.70
2024-03-08T04:46:17.548Z,30.68
2024-03-08T04:47:17.544Z,30.71
2024-03-08T04:48:17.749Z,30.67
2024-03-08T04:49:17.551Z,30.60
2024-03-08T04:50:17.547Z,30.63
2024-03-08T04:51:17.611Z,30.63
2024-03-08T04:52:17.558Z,30.64
2024-03-08T04:53:17.574Z,30.60
2024-03-08T04:54:17.635Z,30.60
2024-03-08T04:55:17.564Z,30.62
2024-03-08T04:56:17.565Z,30.62
2024-03-08T04:57:17.628Z,30.59
2024-03-08T04:58:17.560Z,30.58
2024-03-08T04:59:17.610Z,30.55
2024-03-08T05:00:17.687Z,30.58
2024-03-08T05:01:17.691Z,30.52
2024-03-08T05:02:17.635Z,30.50
2024-03-08T05:03:17.659Z,30.54
2024-03-08T05:04:17.666Z,30.54
2024-03-08T05:05:17.744Z,30.55
2024-03-08T05:06:17.868Z,30.47
2024-03-08T05:07:17.927Z,30.50
2024-03-08T05:08:18.034Z,30.48
2024-03-08T05:09:18.186Z,30.43
2024-03-08T05:10:18.249Z,30.50
2024-03-08T05:11:18.405Z,30.46
2024-03-08T05:12:18.554Z,30.45
2024-03-08T05:13:18.660Z,30.46
2024-03-08T05:14:18.730Z,30.43
2024-03-08T05:15:18.918Z,30.43
2024-03-08T05:16:18.944Z,30.42
2024-03-08T05:17:19.182Z,30.43
2024-03-08T05:18:19.290Z,30.41
2024-03-08T05:19:19.371Z,30.42
2024-03-08T05:20:19.421Z,30.40
2024-03-08T05:21:19.591Z,30.40
2024-03-08T05:22:19.639Z,30.41
2024-03-08T05:23:19.753Z,30.37
2024-03-08T05:24:20.016Z,30.37
2024-03-08T05:25:19.993Z,30.38
2024-03-08T05:26:20.097Z,30.35
2024-03-08T05:27:20.265Z,30.42
2024-03-08T05:28:20.305Z,30.34
2024-03-08T05:29:20.449Z,30.33
2024-03-08T05:30:20.467Z,30.37
2024-03-08T05:31:20.548Z,30.35
2024-03-08T05:32:20.611Z,30.33
2024-03-08T05:33:20.881Z,30.33
2024-03-08T05:34:20.972Z,30.35
2024-03-08T05:35:20.853Z,30.29
2024-03-08T05:36:20.991Z,30.30
2024-03-08T05:37:20.992Z,30.31
2024-03-08T05:38:21.066Z,30.29
2024-03-08T05:39:21.635Z,30.31
2024-03-08T05:40:23.430Z,30.27
2024-03-08T05:41:21.222Z,30.34
2024-03-08T05:42:21.243Z,30.26
2024-03-08T05:43:21.218Z,30.25
2024-03-08T05:44:21.228Z,30.30
2024-03-08T05:45:22.233Z,30.35
2024-03-08T05:46:21.221Z,30.29
2024-03-08T05:47:21.229Z,30.27
2024-03-08T05:48:21.362Z,30.29
2024-03-08T05:49:21.227Z,30.27
2024-03-08T05:50:21.222Z,30.26
2024-03-08T05:51:21.225Z,30.24
2024-03-08T05:52:21.284Z,30.25
2024-03-08T05:53:21.345Z,30.25
2024-03-08T05:54:23.910Z,30.25
2024-03-08T05:55:21.422Z,30.25
2024-03-08T05:56:21.454Z,30.23
2024-03-08T05:57:21.485Z,30.26
2024-03-08T05:58:21.436Z,30.24
2024-03-08T05:59:21.421Z,30.21
2024-03-08T06:00:21.476Z,30.20
2024-03-08T06:01:21.578Z,30.24
2024-03-08T06:02:21.481Z,30.24
2024-03-08T06:03:21.521Z,30.21
2024-03-08T06:04:21.470Z,30.25
2024-03-08T06:05:21.474Z,30.22
2024-03-08T06:06:21.518Z,30.24
2024-03-08T06:07:21.469Z,30.15
2024-03-08T06:08:21.483Z,30.21
2024-03-08T06:09:21.515Z,30.26
2024-03-08T06:10:21.512Z,30.21
2024-03-08T06:11:21.658Z,30.22
2024-03-08T06:12:21.653Z,30.21
2024-03-08T06:13:21.520Z,30.21
2024-03-08T06:14:21.531Z,29.77
2024-03-08T06:15:21.585Z,29.77
2024-03-08T06:16:21.535Z,29.71
2024-03-08T06:17:21.744Z,29.62
2024-03-08T06:18:21.612Z,29.69
2024-03-08T06:19:21.512Z,30.16
2024-03-08T06:20:21.530Z,30.51
2024-03-08T06:21:21.641Z,30.42
2024-03-08T06:22:21.540Z,30.12
2024-03-08T06:23:21.535Z,30.13
2024-03-08T06:24:21.628Z,30.26
2024-03-08T06:25:21.560Z,30.37
2024-03-08T06:26:21.545Z,30.05
2024-03-08T06:27:21.686Z,30.13
2024-03-08T06:28:21.809Z,30.35
2024-03-08T06:29:21.540Z,30.34
2024-03-08T06:30:21.678Z,30.37
2024-03-08T06:31:21.603Z,30.32
2024-03-08T06:32:21.571Z,30.23
2024-03-08T06:33:21.825Z,30.20
2024-03-08T06:34:21.574Z,30.20
2024-03-08T06:35:21.732Z,30.30
2024-03-08T06:36:21.651Z,30.40
2024-03-08T06:37:21.616Z,30.42
2024-03-08T06:38:21.607Z,30.20
2024-03-08T06:39:21.647Z,30.12
2024-03-08T06:40:21.636Z,30.24
2024-03-08T06:41:21.724Z,30.33
2024-03-08T06:42:21.752Z,30.40
2024-03-08T06:43:22.220Z,30.26
2024-03-08T06:44:21.845Z,30.80
2024-03-08T06:45:22.003Z,30.97
2024-03-08T06:46:22.309Z,30.78
2024-03-08T06:47:22.140Z,30.79
2024-03-08T06:48:22.255Z,30.85
2024-03-08T06:49:22.943Z,30.86
2024-03-08T06:50:22.297Z,30.97
2024-03-08T06:51:22.389Z,31.12
2024-03-08T06:52:23.411Z,31.11
2024-03-08T06:53:24.358Z,31.39
2024-03-08T06:54:22.636Z,31.31
2024-03-08T06:55:22.480Z,31.42
2024-03-08T06:56:22.467Z,31.62
2024-03-08T06:57:22.489Z,31.77
2024-03-08T06:58:22.723Z,31.81
2024-03-08T06:59:22.501Z,31.80
2024-03-08T07:00:22.652Z,32.05
2024-03-08T07:01:22.626Z,32.14
2024-03-08T07:02:22.552Z,32.15
2024-03-08T07:03:22.787Z,32.17
2024-03-08T07:04:22.573Z,32.19
2024-03-08T07:05:22.846Z,32.27
2024-03-08T07:06:22.611Z,32.22
2024-03-08T07:07:22.747Z,32.26
2024-03-08T07:08:23.730Z,32.09
2024-03-08T07:09:22.640Z,32.16
2024-03-08T07:10:22.553Z,32.11
2024-03-08T07:11:22.784Z,32.09
2024-03-08T07:12:22.633Z,32.09
2024-03-08T07:13:22.710Z,32.09
2024-03-08T07:14:22.760Z,32.20
2024-03-08T07:15:22.626Z,32.24
2024-03-08T07:16:22.639Z,32.31
2024-03-08T07:17:22.883Z,32.41
2024-03-08T07:18:23.426Z,32.66
2024-03-08T07:19:22.820Z,32.92
2024-03-08T07:20:22.836Z,33.01
2024-03-08T07:21:22.940Z,33.13
2024-03-08T07:22:22.887Z,33.30
2024-03-08T07:23:23.222Z,33.38
2024-03-08T07:24:23.333Z,33.33
2024-03-08T07:25:23.649Z,33.51
2024-03-08T07:26:23.036Z,33.60
2024-03-08T07:27:23.292Z,33.58
2024-03-08T07:28:23.238Z,33.64
2024-03-08T07:29:23.167Z,33.65
2024-03-08T07:30:23.316Z,33.55
2024-03-08T07:31:23.216Z,33.71
2024-03-08T07:32:26.638Z,33.60
2024-03-08T07:33:23.801Z,33.51
2024-03-08T07:34:23.283Z,33.53
2024-03-08T07:35:23.733Z,33.51
2024-03-08T07:36:23.303Z,33.47
2024-03-08T07:37:23.417Z,33.41
2024-03-08T07:38:23.269Z,33.44
2024-03-08T07:39:23.329Z,33.32
2024-03-08T07:40:23.729Z,33.33
2024-03-08T07:41:23.292Z,33.25
2024-03-08T07:42:23.316Z,33.31
2024-03-08T07:43:24.234Z,33.32
2024-03-08T07:44:23.769Z,33.60
2024-03-08T07:45:47.931Z,33.47
2024-03-08T07:46:24.368Z,33.52
2024-03-08T07:47:25.444Z,33.56
2024-03-08T07:48:24.885Z,33.66
2024-03-08T07:49:23.355Z,33.55
2024-03-08T07:50:23.377Z,33.41
2024-03-08T07:51:24.435Z,33.22
2024-03-08T07:52:23.769Z,33.33
2024-03-08T07:53:23.796Z,33.32
2024-03-08T07:54:23.450Z,33.29
2024-03-08T07:55:23.358Z,33.38
2024-03-08T07:56:23.758Z,33.21
2024-03-08T07:57:23.426Z,33.39
2024-03-08T07:58:23.459Z,33.77
2024-03-08T07:59:23.452Z,33.57
2024-03-08T08:00:23.658Z,33.48
2024-03-08T08:01:23.572Z,33.40
2024-03-08T08:02:23.667Z,33.51
2024-03-08T08:03:23.739Z,33.45
2024-03-08T08:04:23.470Z,33.44
2024-03-08T08:05:23.476Z,33.41
2024-03-08T08:06:23.543Z,33.40
2024-03-08T08:07:23.674Z,33.38
2024-03-08T08:08:23.747Z,33.31
2024-03-08T08:09:23.717Z,33.37
2024-03-08T08:10:25.099Z,33.34
2024-03-08T08:11:23.891Z,33.32
2024-03-08T08:12:24.315Z,33.30
2024-03-08T08:13:24.281Z,33.26
2024-03-08T08:14:23.928Z,33.24
2024-03-08T08:15:23.982Z,33.15
2024-03-08T08:16:24.109Z,33.17
2024-03-08T08:17:24.119Z,33.18
2024-03-08T08:18:24.262Z,33.29
2024-03-08T08:19:25.328Z,33.35
2024-03-08T08:20:24.547Z,33.22
2024-03-08T08:21:24.543Z,33.18
2024-03-08T08:22:24.635Z,33.17
2024-03-08T08:23:23.747Z,33.15
2024-03-08T08:24:24.316Z,33.03
2024-03-08T08:25:24.382Z,32.91
2024-03-08T08:26:24.322Z,32.97
2024-03-08T08:27:24.321Z,32.95
2024-03-08T08:28:24.790Z,32.95
2024-03-08T08:29:24.434Z,32.91
2024-03-08T08:30:24.342Z,32.89
2024-03-08T08:31:24.362Z,32.85
2024-03-08T08:32:24.391Z,32.91
2024-03-08T08:33:24.743Z,32.89
2024-03-08T08:34:24.423Z,32.94
2024-03-08T08:35:24.394Z,32.88
2024-03-08T08:36:24.391Z,32.91
2024-03-08T08:37:26.129Z,32.84
2024-03-08T08:38:24.756Z,32.28
2024-03-08T08:39:24.406Z,32.48
2024-03-08T08:40:26.608Z,32.42
2024-03-08T08:41:24.791Z,31.28
2024-03-08T08:42:24.799Z,30.63
2024-03-08T08:43:24.845Z,29.86
2024-03-08T08:44:24.781Z,29.80
2024-03-08T08:45:26.746Z,29.80
2024-03-08T08:46:25.094Z,29.81
2024-03-08T08:47:24.475Z,29.38
2024-03-08T08:48:24.810Z,27.67
2024-03-08T08:49:24.473Z,28.96
2024-03-08T08:50:25.290Z,28.71
2024-03-08T08:51:24.464Z,28.70
2024-03-08T08:52:24.460Z,28.20
2024-03-08T08:53:24.810Z,28.78
2024-03-08T08:54:24.472Z,28.50
2024-03-08T08:55:24.866Z,28.47
2024-03-08T08:56:24.480Z,28.09
2024-03-08T08:57:24.608Z,28.19
2024-03-08T08:58:24.860Z,27.87
2024-03-08T08:59:24.544Z,27.92
2024-03-08T09:00:24.680Z,28.04
2024-03-08T09:01:52.602Z,27.79
2024-03-08T09:02:25.839Z,28.02
2024-03-08T09:03:25.278Z,28.18
2024-03-08T09:04:24.811Z,28.14
2024-03-08T09:05:25.106Z,28.02
2024-03-08T09:06:24.822Z,28.16
2024-03-08T09:07:24.896Z,27.80
2024-03-08T09:08:25.261Z,27.88
2024-03-08T09:09:24.844Z,27.84
2024-03-08T09:11:24.389Z,27.66
2024-03-08T09:12:24.869Z,27.98
2024-03-08T09:45:41.338Z,27.62
2024-03-08T09:46:21.051Z,27.64
2024-03-08T09:47:20.991Z,27.75
2024-03-08T09:48:21.007Z,28.11
2024-03-08T09:49:21.072Z,27.83
2024-03-08T09:50:21.009Z,28.09
2024-03-08T09:51:20.999Z,28.18
2024-03-08T09:52:21.028Z,28.27
2024-03-08T09:53:21.372Z,28.28
2024-03-08T09:54:23.925Z,28.25
2024-03-08T09:55:21.035Z,28.02
2024-03-08T09:56:21.116Z,27.92
2024-03-08T09:57:21.426Z,28.07
2024-03-08T09:58:21.166Z,28.09
2024-03-08T09:59:22.327Z,27.95
2024-03-08T10:00:21.022Z,27.92
2024-03-08T10:01:21.254Z,27.92
2024-03-08T10:02:21.087Z,28.06
2024-03-08T10:03:21.460Z,28.00
2024-03-08T10:04:21.229Z,27.54
2024-03-08T10:05:21.050Z,27.72
2024-03-08T10:06:21.063Z,27.56
2024-03-08T10:07:21.082Z,27.49
2024-03-08T10:08:22.399Z,27.39
2024-03-08T10:09:22.187Z,27.97
2024-03-08T10:10:22.221Z,27.58
2024-03-08T10:11:21.357Z,27.87
2024-03-08T10:12:21.271Z,27.75
2024-03-08T10:13:21.420Z,27.49
2024-03-08T10:14:21.330Z,27.19
2024-03-08T10:15:21.367Z,27.10
2024-03-08T10:16:21.380Z,26.97
2024-03-08T10:17:21.572Z,27.44
2024-03-08T10:18:21.861Z,27.53
2024-03-08T10:19:22.495Z,27.96
2024-03-08T10:20:21.668Z,27.75
2024-03-08T10:21:21.665Z,27.75
2024-03-08T10:22:21.793Z,27.89
2024-03-08T10:23:21.697Z,27.86
2024-03-08T10:24:21.870Z,28.01
2024-03-08T10:25:21.712Z,27.91
2024-03-08T10:26:22.688Z,28.30
2024-03-08T10:27:21.678Z,28.40
2024-03-08T10:28:21.924Z,28.34
2024-03-08T10:29:22.681Z,28.67
2024-03-08T10:30:21.684Z,26.64
2024-03-08T10:31:21.718Z,27.69
2024-03-08T10:32:21.901Z,28.12
2024-03-08T10:33:21.744Z,28.27
2024-03-08T10:34:21.887Z,28.71
2024-03-08T10:35:21.949Z,28.61
2024-03-08T10:36:29.474Z,28.08
2024-03-08T10:37:23.086Z,28.24
2024-03-08T10:38:22.070Z,28.38
2024-03-08T10:39:22.358Z,28.82
2024-03-08T10:40:22.215Z,29.08
2024-03-08T10:41:22.093Z,29.36
2024-03-08T10:42:22.076Z,29.97
2024-03-08T10:43:25.036Z,30.14
2024-03-08T10:44:22.132Z,30.05
2024-03-08T10:45:22.108Z,30.41
2024-03-08T10:46:22.385Z,30.95
2024-03-08T10:47:22.277Z,30.92
2024-03-08T10:48:22.351Z,30.83
2024-03-08T10:49:22.322Z,30.79
2024-03-08T10:50:23.342Z,31.00
2024-03-08T10:51:22.470Z,30.87
2024-03-08T10:52:22.552Z,30.85
2024-03-08T10:53:22.969Z,30.88
2024-03-08T10:54:22.863Z,30.88
2024-03-08T10:55:22.633Z,30.91
2024-03-08T10:56:22.979Z,30.88
2024-03-08T10:57:23.058Z,30.90
2024-03-08T10:58:24.074Z,30.98
2024-03-08T10:59:22.945Z,31.00
2024-03-08T11:00:23.029Z,31.33
2024-03-08T11:01:23.054Z,31.40
2024-03-08T11:02:23.672Z,31.36
2024-03-08T11:03:23.137Z,31.38
2024-03-08T11:04:23.137Z,31.43
2024-03-08T11:05:23.194Z,31.46
2024-03-08T11:06:23.217Z,31.48
2024-03-08T11:07:23.466Z,31.50
2024-03-08T11:08:24.051Z,31.52
2024-03-08T11:09:23.516Z,31.63
2024-03-08T11:10:23.500Z,31.60
2024-03-08T11:11:23.554Z,31.67
2024-03-08T11:12:23.636Z,31.69
2024-03-08T11:13:23.776Z,31.66
2024-03-08T11:14:23.871Z,31.74
2024-03-08T11:15:23.948Z,31.70
2024-03-08T11:16:24.257Z,31.71
2024-03-08T11:17:24.213Z,31.73
2024-03-08T11:18:24.472Z,31.83
2024-03-08T11:19:24.380Z,32.30
2024-03-08T11:20:24.535Z,32.56
2024-03-08T11:21:24.677Z,32.47
2024-03-08T11:22:24.769Z,32.19
2024-03-08T11:23:24.897Z,31.80
2024-03-08T11:24:25.337Z,31.36
2024-03-08T11:25:25.053Z,31.19
2024-03-08T11:26:25.226Z,31.04
2024-03-08T11:27:25.333Z,30.87
2024-03-08T11:28:25.855Z,30.27
2024-03-08T11:29:25.468Z,29.75
2024-03-08T11:30:25.837Z,30.02
2024-03-08T11:31:25.571Z,30.35
2024-03-08T11:32:25.686Z,29.87
2024-03-08T11:33:25.802Z,29.45
2024-03-08T11:34:25.960Z,30.09
2024-03-08T11:35:26.061Z,30.27
2024-03-08T11:36:26.247Z,30.25
2024-03-08T11:37:26.412Z,30.25
2024-03-08T11:38:26.482Z,30.27
2024-03-08T11:39:26.575Z,30.36
2024-03-08T11:40:26.779Z,30.34
2024-03-08T11:41:26.814Z,30.37
2024-03-08T11:42:26.942Z,30.26
2024-03-08T11:43:27.054Z,30.35
2024-03-08T11:44:27.347Z,30.39
2024-03-08T11:45:27.257Z,30.38
2024-03-08T11:46:27.396Z,30.32
2024-03-08T11:47:27.501Z,30.29
2024-03-08T11:48:27.666Z,30.45
2024-03-08T11:49:31.570Z,30.45
2024-03-08T11:50:27.696Z,30.48
2024-03-08T11:51:27.750Z,30.46
2024-03-08T11:52:28.377Z,30.35
2024-03-08T11:53:27.795Z,30.27
2024-03-08T11:54:27.730Z,30.36
2024-03-08T11:55:27.864Z,30.47
2024-03-08T11:56:27.897Z,30.42
2024-03-08T11:57:27.948Z,30.33
2024-03-08T11:58:28.395Z,30.37
2024-03-08T11:59:28.034Z,30.47
2024-03-08T12:00:28.190Z,30.52
2024-03-08T12:01:28.239Z,30.46
2024-03-08T12:02:28.369Z,30.38
2024-03-08T12:03:28.391Z,30.39
2024-03-08T12:04:28.507Z,30.46
2024-03-08T12:05:28.570Z,30.50
2024-03-08T12:06:28.610Z,30.54
2024-03-08T12:07:28.741Z,30.47
2024-03-08T12:08:28.776Z,30.47
2024-03-08T12:09:28.899Z,30.40
2024-03-08T12:10:29.037Z,30.46
2024-03-08T12:11:31.722Z,30.52
2024-03-08T12:12:29.038Z,30.57
2024-03-08T12:13:29.077Z,30.46
2024-03-08T12:14:29.358Z,30.42
2024-03-08T12:15:29.052Z,30.42
2024-03-08T12:16:29.079Z,30.47
2024-03-08T12:17:29.098Z,30.49
2024-03-08T12:18:29.093Z,30.40
2024-03-08T12:19:29.398Z,30.44
2024-03-08T12:20:29.082Z,30.54
2024-03-08T12:21:29.088Z,30.56
2024-03-08T12:22:29.167Z,30.50
2024-03-08T12:23:29.144Z,30.44
2024-03-08T12:24:29.362Z,30.41
2024-03-08T12:25:29.393Z,30.53
2024-03-08T12:26:29.331Z,30.62
2024-03-08T12:27:29.391Z,30.55
2024-03-08T12:28:29.477Z,30.53
2024-03-08T12:29:29.537Z,30.44
2024-03-08T12:30:29.555Z,30.53
2024-03-08T12:31:30.048Z,30.67
2024-03-08T12:32:29.732Z,30.70
2024-03-08T12:33:29.873Z,30.63
2024-03-08T12:34:29.937Z,30.55
2024-03-08T12:35:29.918Z,30.53
2024-03-08T12:36:29.977Z,30.63
2024-03-08T12:37:30.053Z,30.66
2024-03-08T12:38:30.370Z,30.49
2024-03-08T12:39:30.182Z,30.38
2024-03-08T12:40:30.328Z,30.13
2024-03-08T12:41:30.936Z,29.82
2024-03-08T12:42:30.362Z,29.65
2024-03-08T12:43:30.523Z,29.25
2024-03-08T12:44:30.481Z,29.67
2024-03-08T12:45:30.536Z,29.61
2024-03-08T12:46:30.587Z,29.91
2024-03-08T12:47:30.654Z,30.26
2024-03-08T12:48:30.695Z,30.35
2024-03-08T12:49:30.789Z,30.32
2024-03-08T12:50:30.796Z,30.24
2024-03-08T12:51:30.867Z,30.33
2024-03-08T12:52:30.990Z,30.31
2024-03-08T12:53:30.972Z,30.14
2024-03-08T12:54:31.009Z,29.62
2024-03-08T12:55:31.090Z,29.42
2024-03-08T12:56:31.101Z,29.43
2024-03-08T12:57:31.255Z,29.25
2024-03-08T12:58:31.389Z,29.65
2024-03-08T12:59:31.385Z,30.02
2024-03-08T13:00:31.459Z,30.17
2024-03-08T13:01:31.983Z,30.36
2024-03-08T13:02:31.643Z,30.92
2024-03-08T13:03:31.714Z,31.00
2024-03-08T13:04:31.828Z,31.13
2024-03-08T13:05:31.839Z,31.09
2024-03-08T13:06:31.924Z,31.17
2024-03-08T13:07:32.097Z,31.49
2024-03-08T13:08:32.087Z,31.36
2024-03-08T13:09:32.424Z,31.43
2024-03-08T13:10:32.264Z,31.75
2024-03-08T13:11:32.483Z,31.82
2024-03-08T13:12:32.385Z,31.81
2024-03-08T13:13:32.525Z,31.85
2024-03-08T13:14:32.539Z,31.78
2024-03-08T13:15:32.611Z,31.79
2024-03-08T13:16:32.797Z,31.78
2024-03-08T13:17:32.779Z,31.85
2024-03-08T13:18:32.860Z,31.68
2024-03-08T13:19:32.914Z,31.57
2024-03-08T13:20:38.096Z,31.70
2024-03-08T13:21:32.985Z,31.82
2024-03-08T13:22:33.061Z,31.61
2024-03-08T13:23:32.994Z,31.67
2024-03-08T13:24:33.012Z,31.83
2024-03-08T13:25:32.998Z,31.91
2024-03-08T13:26:32.985Z,31.53
2024-03-08T13:27:32.986Z,31.48
2024-03-08T13:28:33.043Z,31.51
2024-03-08T13:29:33.035Z,31.64
2024-03-08T13:30:32.988Z,31.48
2024-03-08T13:31:33.016Z,31.40
2024-03-08T13:32:33.017Z,31.44
2024-03-08T13:33:33.005Z,31.50
2024-03-08T13:34:33.049Z,31.62
2024-03-08T13:35:32.999Z,31.48
2024-03-08T13:36:33.008Z,31.33
2024-03-08T13:37:33.054Z,31.16
2024-03-08T13:38:33.016Z,31.24
2024-03-08T13:39:33.062Z,31.40
2024-03-08T13:40:33.133Z,31.37
2024-03-08T13:41:34.139Z,31.24
2024-03-08T13:42:33.042Z,31.30
2024-03-08T13:43:33.485Z,31.38
2024-03-08T13:44:33.058Z,31.43
2024-03-08T13:45:33.140Z,31.43
2024-03-08T13:46:33.445Z,31.29
2024-03-08T13:47:33.133Z,31.21
2024-03-08T13:48:33.153Z,31.13
2024-03-08T13:49:33.296Z,31.26
2024-03-08T13:50:33.370Z,30.98
2024-03-08T13:51:33.446Z,30.84
2024-03-08T13:52:33.602Z,31.04
2024-03-08T13:53:33.688Z,31.24
2024-03-08T13:54:33.774Z,30.90
2024-03-08T13:55:33.902Z,30.83
2024-03-08T13:56:33.949Z,31.05
2024-03-08T13:57:35.061Z,31.11
2024-03-08T13:58:34.142Z,30.84
2024-03-08T13:59:34.213Z,30.87
2024-03-08T14:00:34.310Z,30.96
2024-03-08T14:01:34.393Z,31.01
2024-03-08T14:02:34.292Z,30.87
2024-03-08T14:03:34.346Z,30.77
2024-03-08T14:04:34.498Z,30.89
2024-03-08T14:05:34.511Z,30.99
2024-03-08T14:07:33.732Z,30.57
2024-03-08T14:08:34.775Z,30.67
2024-03-08T14:09:34.872Z,30.69
2024-03-08T14:10:35.054Z,30.81
2024-03-08T14:11:35.107Z,30.63
2024-03-08T14:12:35.196Z,30.56
2024-03-08T14:13:35.345Z,30.65
2024-03-08T14:14:35.405Z,30.73
2024-03-08T14:15:35.518Z,30.78
2024-03-08T14:16:35.624Z,30.75
2024-03-08T14:17:35.708Z,30.68
2024-03-08T14:18:35.764Z,30.78
2024-03-08T14:19:35.970Z,30.60